createdAt,value
2023-04-28T00:00:56.617Z,9.719005
2023-04-28T00:01:57.577Z,9.719036
2023-04-28T00:02:56.656Z,9.719003
2023-04-28T00:03:56.707Z,9.719460
2023-04-28T00:04:56.709Z,9.719199
2023-04-28T00:05:56.632Z,9.719072
2023-04-28T00:06:56.530Z,9.719085
2023-04-28T00:07:56.518Z,9.718646
2023-04-28T00:08:57.531Z,9.718757
2023-04-28T00:09:56.516Z,9.718622
2023-04-28T00:10:56.504Z,9.718966
2023-04-28T00:11:56.478Z,9.719208
2023-04-28T00:12:56.496Z,9.719037
2023-04-28T00:13:56.457Z,9.718692
2023-04-28T00:14:56.460Z,9.718619
2023-04-28T00:15:56.469Z,9.719146
2023-04-28T00:16:56.519Z,9.718880
2023-04-28T00:17:56.570Z,9.718887
2023-04-28T00:18:56.417Z,9.719165
2023-04-28T00:19:56.431Z,9.718913
2023-04-28T00:20:56.419Z,9.718966
2023-04-28T00:21:56.387Z,9.719110
2023-04-28T00:22:56.387Z,9.719060
2023-04-28T00:23:56.408Z,9.719169
2023-04-28T00:24:56.354Z,9.719372
2023-04-28T00:25:56.344Z,9.719110
2023-04-28T00:26:56.336Z,9.719460
2023-04-28T00:27:56.362Z,9.719490
2023-04-28T00:28:56.314Z,9.719348
2023-04-28T00:29:56.323Z,9.719435
2023-04-28T00:30:56.297Z,9.719634
2023-04-28T00:31:56.362Z,9.719579
2023-04-28T00:32:56.294Z,9.719355
2023-04-28T00:33:56.264Z,9.719070
2023-04-28T00:34:56.250Z,9.719258
2023-04-28T00:35:56.237Z,9.719211
2023-04-28T00:36:56.287Z,9.719174
2023-04-28T00:37:56.242Z,9.719089
2023-04-28T00:38:56.255Z,9.718954
2023-04-28T00:39:56.222Z,9.719166
2023-04-28T00:40:56.217Z,9.719245
2023-04-28T00:41:56.195Z,9.719108
2023-04-28T00:42:56.167Z,9.719344
2023-04-28T00:43:56.230Z,9.719155
2023-04-28T00:44:56.155Z,9.719231
2023-04-28T00:45:56.177Z,9.719340
2023-04-28T00:46:56.147Z,9.719585
2023-04-28T00:47:56.156Z,9.719580
2023-04-28T00:48:56.153Z,9.719464
2023-04-28T00:49:56.120Z,9.719378
2023-04-28T00:50:56.105Z,9.719294
2023-04-28T00:51:56.092Z,9.719487
2023-04-28T00:52:56.151Z,9.719425
2023-04-28T00:53:56.068Z,9.719395
2023-04-28T00:54:56.070Z,9.719355
2023-04-28T00:55:56.062Z,9.719239
2023-04-28T00:56:56.021Z,9.719308
2023-04-28T00:57:56.055Z,9.719300
2023-04-28T00:58:56.022Z,9.719395
2023-04-28T00:59:56.016Z,9.719374
2023-04-28T01:00:57.014Z,9.719320
2023-04-28T01:01:56.026Z,9.719313
2023-04-28T01:02:56.125Z,9.719421
2023-04-28T01:03:56.189Z,9.719435
2023-04-28T01:04:55.964Z,9.719368
2023-04-28T01:05:55.980Z,9.719385
2023-04-28T01:06:55.957Z,9.719315
2023-04-28T01:07:55.955Z,9.719246
2023-04-28T01:08:55.962Z,9.719295
2023-04-28T01:09:55.925Z,9.719277
2023-04-28T01:10:55.926Z,9.719319
2023-04-28T01:11:55.903Z,9.719366
2023-04-28T01:12:55.907Z,9.719412
2023-04-28T01:13:55.878Z,9.719481
2023-04-28T01:14:55.928Z,9.719452
2023-04-28T01:15:55.864Z,9.719320
2023-04-28T01:16:55.926Z,9.719326
2023-04-28T01:17:55.868Z,9.719372
2023-04-28T01:18:55.841Z,9.719406
2023-04-28T01:19:55.887Z,9.719297
2023-04-28T01:20:55.798Z,9.719356
2023-04-28T01:21:55.806Z,9.719352
2023-04-28T01:22:55.812Z,9.719402
2023-04-28T01:23:55.788Z,9.719391
2023-04-28T01:24:55.809Z,9.719349
2023-04-28T01:25:55.753Z,9.719364
2023-04-28T01:26:55.762Z,9.719270
2023-04-28T01:27:55.742Z,9.719227
2023-04-28T01:28:55.728Z,9.719174
2023-04-28T01:29:55.732Z,9.719200
2023-04-28T01:30:55.739Z,9.719220
2023-04-28T01:31:55.766Z,9.719789
2023-04-28T01:32:55.739Z,9.719383
2023-04-28T01:33:55.675Z,9.719247
2023-04-28T01:34:55.686Z,9.718879
2023-04-28T01:35:55.681Z,9.718485
2023-04-28T01:36:55.660Z,9.718477
2023-04-28T01:37:55.644Z,9.719205
2023-04-28T01:38:55.656Z,9.719397
2023-04-28T01:39:55.642Z,9.719218
2023-04-28T01:40:55.626Z,9.719639
2023-04-28T01:41:55.608Z,9.719479
2023-04-28T01:42:55.593Z,9.719325
2023-04-28T01:43:55.579Z,9.719273
2023-04-28T01:44:55.610Z,9.719285
2023-04-28T01:45:55.599Z,9.719473
2023-04-28T01:46:55.580Z,9.719057
2023-04-28T01:47:55.691Z,9.719192
2023-04-28T01:48:55.565Z,9.719183
2023-04-28T01:49:55.529Z,9.719203
2023-04-28T01:50:55.544Z,9.718927
2023-04-28T01:51:55.504Z,9.718970
2023-04-28T01:52:55.487Z,9.718920
2023-04-28T01:53:55.525Z,9.718939
2023-04-28T01:54:55.477Z,9.718893
2023-04-28T01:55:55.483Z,9.719043
2023-04-28T01:56:55.471Z,9.719155
2023-04-28T01:57:55.521Z,9.719195
2023-04-28T01:58:55.434Z,9.719088
2023-04-28T01:59:55.446Z,9.719027
2023-04-28T02:00:55.436Z,9.719000
2023-04-28T02:01:55.436Z,9.719153
2023-04-28T02:02:55.428Z,9.719105
2023-04-28T02:03:55.789Z,9.719085
2023-04-28T02:04:55.412Z,9.719039
2023-04-28T02:05:55.374Z,9.719101
2023-04-28T02:06:55.362Z,9.719136
2023-04-28T02:07:55.347Z,9.719101
2023-04-28T02:08:55.373Z,9.719061
2023-04-28T02:09:55.327Z,9.719051
2023-04-28T02:10:55.358Z,9.719146
2023-04-28T02:11:55.313Z,9.719218
2023-04-28T02:12:55.303Z,9.719200
2023-04-28T02:13:55.293Z,9.719196
2023-04-28T02:14:55.306Z,9.719280
2023-04-28T02:15:55.309Z,9.719259
2023-04-28T02:16:55.245Z,9.719171
2023-04-28T02:17:55.274Z,9.719130
2023-04-28T02:18:55.258Z,9.719127
2023-04-28T02:19:55.254Z,9.719239
2023-04-28T02:20:55.227Z,9.719311
2023-04-28T02:21:55.192Z,9.719252
2023-04-28T02:22:55.187Z,9.719184
2023-04-28T02:23:55.174Z,9.719177
2023-04-28T02:24:55.204Z,9.719184
2023-04-28T02:25:55.160Z,9.719166
2023-04-28T02:26:55.153Z,9.719322
2023-04-28T02:27:55.150Z,9.719347
2023-04-28T02:28:55.137Z,9.719372
2023-04-28T02:29:55.119Z,9.719217
2023-04-28T02:30:55.126Z,9.719304
2023-04-28T02:31:55.114Z,9.718940
2023-04-28T02:32:55.114Z,9.719035
2023-04-28T02:33:55.084Z,9.719103
2023-04-28T02:34:55.097Z,9.719213
2023-04-28T02:35:55.087Z,9.719277
2023-04-28T02:36:55.055Z,9.719148
2023-04-28T02:37:55.050Z,9.719289
2023-04-28T02:38:55.035Z,9.719214
2023-04-28T02:39:55.028Z,9.719148
2023-04-28T02:40:55.040Z,9.719129
2023-04-28T02:41:55.013Z,9.719179
2023-04-28T02:42:54.998Z,9.719109
2023-04-28T02:43:55.002Z,9.719088
2023-04-28T02:44:54.969Z,9.719130
2023-04-28T02:45:54.973Z,9.719069
2023-04-28T02:46:54.993Z,9.719079
2023-04-28T02:47:54.997Z,9.719099
2023-04-28T02:48:54.980Z,9.719133
2023-04-28T02:49:54.948Z,9.719052
2023-04-28T02:50:54.930Z,9.718946
2023-04-28T02:51:54.951Z,9.718966
2023-04-28T02:52:54.908Z,9.719019
2023-04-28T02:53:55.897Z,9.719063
2023-04-28T02:54:54.879Z,9.719223
2023-04-28T02:55:54.887Z,9.719153
2023-04-28T02:56:54.860Z,9.718784
2023-04-28T02:57:54.868Z,9.719042
2023-04-28T02:58:54.849Z,9.719105
2023-04-28T02:59:54.858Z,9.719163
2023-04-28T03:00:54.843Z,9.718910
2023-04-28T03:01:54.828Z,9.719108
2023-04-28T03:02:55.010Z,9.719065
2023-04-28T03:03:55.052Z,9.718968
2023-04-28T03:04:54.842Z,9.718975
2023-04-28T03:05:54.774Z,9.718966
2023-04-28T03:06:54.831Z,9.718988
2023-04-28T03:07:54.754Z,9.718943
2023-04-28T03:08:54.766Z,9.718914
2023-04-28T03:10:26.660Z,9.719022
2023-04-28T03:10:54.769Z,9.718981
2023-04-28T03:11:54.715Z,9.718989
2023-04-28T03:12:54.712Z,9.718727
2023-04-28T03:13:54.701Z,9.718951
2023-04-28T03:14:54.673Z,9.718887
2023-04-28T03:15:54.687Z,9.719170
2023-04-28T03:16:54.689Z,9.719145
2023-04-28T03:17:54.715Z,9.719005
2023-04-28T03:18:54.661Z,9.719069
2023-04-28T03:19:54.682Z,9.719191
2023-04-28T03:20:54.620Z,9.719206
2023-04-28T03:21:54.605Z,9.719234
2023-04-28T03:22:54.605Z,9.719183
2023-04-28T03:23:54.606Z,9.719295
2023-04-28T03:24:54.592Z,9.719131
2023-04-28T03:25:54.568Z,9.719179
2023-04-28T03:26:54.566Z,9.719212
2023-04-28T03:27:54.578Z,9.719248
2023-04-28T03:28:54.541Z,9.719215
2023-04-28T03:29:54.524Z,9.719206
2023-04-28T03:30:54.553Z,9.719159
2023-04-28T03:31:54.546Z,9.719114
2023-04-28T03:32:54.549Z,9.719109
2023-04-28T03:33:54.491Z,9.719124
2023-04-28T03:34:54.486Z,9.719219
2023-04-28T03:35:54.506Z,9.719235
2023-04-28T03:36:54.496Z,9.719269
2023-04-28T03:37:54.460Z,9.719296
2023-04-28T03:38:54.477Z,9.719316
2023-04-28T03:39:54.433Z,9.719266
2023-04-28T03:40:54.424Z,9.719123
2023-04-28T03:41:54.431Z,9.719265
2023-04-28T03:42:54.412Z,9.719282
2023-04-28T03:43:54.416Z,9.719112
2023-04-28T03:44:54.421Z,9.719115
2023-04-28T03:45:54.390Z,9.719097
2023-04-28T03:46:54.365Z,9.719172
2023-04-28T03:47:55.373Z,9.719154
2023-04-28T03:48:54.364Z,9.719181
2023-04-28T03:49:54.344Z,9.719270
2023-04-28T03:50:54.316Z,9.719254
2023-04-28T03:51:54.336Z,9.718896
2023-04-28T03:52:54.328Z,9.718914
2023-04-28T03:53:54.296Z,9.719146
2023-04-28T03:54:54.298Z,9.719209
2023-04-28T03:55:54.304Z,9.719151
2023-04-28T03:56:54.296Z,9.719026
2023-04-28T03:57:54.261Z,9.719139
2023-04-28T03:58:54.240Z,9.719285
2023-04-28T03:59:54.249Z,9.719198
2023-04-28T04:00:54.252Z,9.718797
2023-04-28T04:01:54.246Z,9.718745
2023-04-28T04:02:54.337Z,9.719013
2023-04-28T04:03:54.446Z,9.719049
2023-04-28T04:04:54.365Z,9.718822
2023-04-28T04:05:54.209Z,9.718723
2023-04-28T04:06:54.172Z,9.718928
2023-04-28T04:07:54.169Z,9.718906
2023-04-28T04:08:54.147Z,9.718666
2023-04-28T04:09:54.156Z,9.718629
2023-04-28T04:10:54.131Z,9.718821
2023-04-28T04:11:54.107Z,9.718854
2023-04-28T04:12:54.101Z,9.718861
2023-04-28T04:13:54.089Z,9.718930
2023-04-28T04:14:54.104Z,9.718906
2023-04-28T04:15:54.112Z,9.719171
2023-04-28T04:16:54.087Z,9.719281
2023-04-28T04:17:54.124Z,9.719101
2023-04-28T04:18:54.069Z,9.718958
2023-04-28T04:19:54.034Z,9.718948
2023-04-28T04:20:54.030Z,9.718960
2023-04-28T04:21:54.039Z,9.718930
2023-04-28T04:22:54.019Z,9.718923
2023-04-28T04:23:54.004Z,9.719007
2023-04-28T04:24:53.991Z,9.718797
2023-04-28T04:25:53.997Z,9.719023
2023-04-28T04:26:53.973Z,9.719316
2023-04-28T04:27:53.973Z,9.719184
2023-04-28T04:28:54.025Z,9.718782
2023-04-28T04:29:53.949Z,9.718810
2023-04-28T04:30:53.950Z,9.718642
2023-04-28T04:31:53.922Z,9.719002
2023-04-28T04:32:54.176Z,9.718964
2023-04-28T04:33:53.912Z,9.718924
2023-04-28T04:34:53.934Z,9.719066
2023-04-28T04:35:53.911Z,9.719089
2023-04-28T04:36:53.880Z,9.719130
2023-04-28T04:37:53.902Z,9.719225
2023-04-28T04:38:54.656Z,9.719314
2023-04-28T04:39:54.846Z,9.719069
2023-04-28T04:40:53.834Z,9.719047
2023-04-28T04:41:53.936Z,9.719102
2023-04-28T04:42:53.848Z,9.719147
2023-04-28T04:43:53.802Z,9.719129
2023-04-28T04:44:53.785Z,9.719154
2023-04-28T04:45:53.786Z,9.719166
2023-04-28T04:46:53.956Z,9.719293
2023-04-28T04:47:53.828Z,9.719256
2023-04-28T04:48:53.755Z,9.719337
2023-04-28T04:49:53.755Z,9.719305
2023-04-28T04:50:53.739Z,9.719269
2023-04-28T04:51:53.747Z,9.719099
2023-04-28T04:52:53.717Z,9.719063
2023-04-28T04:53:53.724Z,9.719127
2023-04-28T04:54:53.694Z,9.719165
2023-04-28T04:55:53.691Z,9.719188
2023-04-28T04:56:53.687Z,9.719130
2023-04-28T04:57:53.685Z,9.719123
2023-04-28T04:58:53.659Z,9.719265
2023-04-28T04:59:53.656Z,9.719226
2023-04-28T05:00:53.700Z,9.719156
2023-04-28T05:01:53.678Z,9.719218
2023-04-28T05:02:53.699Z,9.719180
2023-04-28T05:03:53.761Z,9.719190
2023-04-28T05:04:55.960Z,9.719186
2023-04-28T05:05:54.590Z,9.719187
2023-04-28T05:06:53.583Z,9.719131
2023-04-28T05:07:53.592Z,9.719058
2023-04-28T05:08:53.559Z,9.719122
2023-04-28T05:09:53.543Z,9.719089
2023-04-28T05:10:53.579Z,9.719152
2023-04-28T05:11:53.558Z,9.719282
2023-04-28T05:12:53.527Z,9.719316
2023-04-28T05:13:53.537Z,9.719120
2023-04-28T05:14:53.491Z,9.719165
2023-04-28T05:15:53.488Z,9.719041
2023-04-28T05:16:53.534Z,9.719003
2023-04-28T05:17:54.088Z,9.719011
2023-04-28T05:18:53.458Z,9.718987
2023-04-28T05:19:53.534Z,9.719072
2023-04-28T05:20:53.450Z,9.718858
2023-04-28T05:21:53.438Z,9.718852
2023-04-28T05:22:53.436Z,9.719000
2023-04-28T05:23:53.415Z,9.719121
2023-04-28T05:24:53.432Z,9.719017
2023-04-28T05:25:53.410Z,9.719056
2023-04-28T05:26:53.378Z,9.719030
2023-04-28T05:27:53.377Z,9.719112
2023-04-28T05:28:53.358Z,9.719049
2023-04-28T05:29:53.344Z,9.719010
2023-04-28T05:30:53.389Z,9.719020
2023-04-28T05:31:54.035Z,9.718956
2023-04-28T05:32:53.380Z,9.719049
2023-04-28T05:33:53.305Z,9.719065
2023-04-28T05:34:53.301Z,9.719165
2023-04-28T05:35:53.305Z,9.719208
2023-04-28T05:36:53.319Z,9.719038
2023-04-28T05:37:53.265Z,9.719070
2023-04-28T05:38:53.253Z,9.719003
2023-04-28T05:39:53.276Z,9.718969
2023-04-28T05:40:53.246Z,9.719088
2023-04-28T05:41:53.243Z,9.719123
2023-04-28T05:42:53.244Z,9.719250
2023-04-28T05:43:53.207Z,9.719322
2023-04-28T05:44:53.189Z,9.719188
2023-04-28T05:45:53.228Z,9.719075
2023-04-28T05:46:53.440Z,9.718904
2023-04-28T05:47:53.242Z,9.719058
2023-04-28T05:48:53.171Z,9.719159
2023-04-28T05:49:53.165Z,9.719263
2023-04-28T05:50:53.169Z,9.719293
2023-04-28T05:51:53.125Z,9.719368
2023-04-28T05:52:53.160Z,9.719273
2023-04-28T05:53:53.175Z,9.719228
2023-04-28T05:54:53.117Z,9.719332
2023-04-28T05:55:53.106Z,9.719251
2023-04-28T05:56:53.098Z,9.719224
2023-04-28T05:57:53.666Z,9.719247
2023-04-28T05:58:54.051Z,9.719268
2023-04-28T05:59:53.051Z,9.719383
2023-04-28T06:00:53.058Z,9.719263
2023-04-28T06:01:53.031Z,9.719288
2023-04-28T06:02:53.140Z,9.719325
2023-04-28T06:03:53.186Z,9.719192
2023-04-28T06:04:53.395Z,9.719235
2023-04-28T06:05:53.009Z,9.719278
2023-04-28T06:06:53.972Z,9.719327
2023-04-28T06:07:55.052Z,9.719300
2023-04-28T06:08:52.986Z,9.719319
2023-04-28T06:09:52.948Z,9.719261
2023-04-28T06:10:52.944Z,9.719328
2023-04-28T06:11:52.928Z,9.719661
2023-04-28T06:12:52.934Z,9.719560
2023-04-28T06:13:52.913Z,9.719481
2023-04-28T06:14:52.933Z,9.719370
2023-04-28T06:15:52.917Z,9.719290
2023-04-28T06:16:52.885Z,9.719194
2023-04-28T06:17:52.888Z,9.719079
2023-04-28T06:18:52.864Z,9.719323
2023-04-28T06:19:52.934Z,9.719425
2023-04-28T06:20:52.866Z,9.719397
2023-04-28T06:21:52.833Z,9.719375
2023-04-28T06:22:52.841Z,9.719277
2023-04-28T06:23:52.839Z,9.719272
2023-04-28T06:24:52.803Z,9.719017
2023-04-28T06:25:52.815Z,9.718970
2023-04-28T06:26:52.778Z,9.719078
2023-04-28T06:27:52.773Z,9.719188
2023-04-28T06:28:52.803Z,9.719143
2023-04-28T06:29:52.757Z,9.719272
2023-04-28T06:30:52.775Z,9.719247
2023-04-28T06:31:52.981Z,9.719320
2023-04-28T06:32:52.736Z,9.719554
2023-04-28T06:33:52.716Z,9.719540
2023-04-28T06:34:52.719Z,9.719497
2023-04-28T06:35:52.696Z,9.719424
2023-04-28T06:36:52.706Z,9.719460
2023-04-28T06:37:52.678Z,9.719328
2023-04-28T06:38:52.662Z,9.719334
2023-04-28T06:39:52.660Z,9.719471
2023-04-28T06:40:52.657Z,9.719373
2023-04-28T06:41:52.642Z,9.719265
2023-04-28T06:42:52.634Z,9.719199
2023-04-28T06:43:52.610Z,9.719218
2023-04-28T06:44:52.622Z,9.719175
2023-04-28T06:45:52.593Z,9.719274
2023-04-28T06:46:52.625Z,9.719370
2023-04-28T06:47:52.680Z,9.719341
2023-04-28T06:48:52.580Z,9.719268
2023-04-28T06:49:52.567Z,9.719328
2023-04-28T06:50:52.553Z,9.719387
2023-04-28T06:51:52.903Z,9.719395
2023-04-28T06:52:52.531Z,9.719374
2023-04-28T06:53:52.537Z,9.719467
2023-04-28T06:54:52.519Z,9.719501
2023-04-28T06:55:52.868Z,9.719471
2023-04-28T06:56:52.488Z,9.719545
2023-04-28T06:57:52.473Z,9.719459
2023-04-28T06:58:52.483Z,9.719385
2023-04-28T06:59:52.467Z,9.719419
2023-04-28T07:00:52.478Z,9.719504
2023-04-28T07:01:53.466Z,9.719425
2023-04-28T07:02:52.581Z,9.719546
2023-04-28T07:03:52.500Z,9.719522
2023-04-28T07:04:52.411Z,9.719526
2023-04-28T07:05:52.421Z,9.719472
2023-04-28T07:06:52.430Z,9.719499
2023-04-28T07:07:52.395Z,9.719489
2023-04-28T07:08:52.366Z,9.719501
2023-04-28T07:09:52.383Z,9.719517
2023-04-28T07:10:52.356Z,9.719522
2023-04-28T07:11:52.362Z,9.719475
2023-04-28T07:12:52.379Z,9.719499
2023-04-28T07:13:52.325Z,9.719391
2023-04-28T07:14:52.317Z,9.719386
2023-04-28T07:15:52.350Z,9.719386
2023-04-28T07:16:52.393Z,9.719408
2023-04-28T07:17:52.310Z,9.719390
2023-04-28T07:18:52.294Z,9.719379
2023-04-28T07:19:52.252Z,9.719412
2023-04-28T07:20:52.287Z,9.719335
2023-04-28T07:21:52.317Z,9.719313
2023-04-28T07:22:52.241Z,9.719333
2023-04-28T07:23:52.215Z,9.719325
2023-04-28T07:24:52.212Z,9.719358
2023-04-28T07:25:52.202Z,9.719370
2023-04-28T07:26:52.256Z,9.719383
2023-04-28T07:27:52.179Z,9.719411
2023-04-28T07:28:52.247Z,9.719423
2023-04-28T07:29:52.169Z,9.719328
2023-04-28T07:30:52.166Z,9.719401
2023-04-28T07:31:52.208Z,9.719371
2023-04-28T07:32:52.216Z,9.719372
2023-04-28T07:33:52.121Z,9.719307
2023-04-28T07:34:52.121Z,9.719332
2023-04-28T07:35:52.103Z,9.719288
2023-04-28T07:36:52.230Z,9.719377
2023-04-28T07:37:52.084Z,9.719328
2023-04-28T07:38:52.067Z,9.719195
2023-04-28T07:39:52.067Z,9.719372
2023-04-28T07:41:52.062Z,9.719501
2023-04-28T07:42:52.066Z,9.719465
2023-04-28T07:43:52.025Z,9.719228
2023-04-28T07:44:52.026Z,9.719195
2023-04-28T07:45:52.051Z,9.719296
2023-04-28T07:46:52.386Z,9.719329
2023-04-28T07:47:52.060Z,9.719343
2023-04-28T07:48:51.975Z,9.719136
2023-04-28T07:49:51.977Z,9.719074
2023-04-28T07:50:51.952Z,9.718953
2023-04-28T07:51:51.949Z,9.719115
2023-04-28T07:52:51.934Z,9.719197
2023-04-28T07:53:51.953Z,9.719351
2023-04-28T07:54:51.926Z,9.719450
2023-04-28T07:55:52.906Z,9.719450
2023-04-28T07:56:51.912Z,9.719289
2023-04-28T07:57:51.889Z,9.719878
2023-04-28T07:58:51.893Z,9.719461
2023-04-28T07:59:51.877Z,9.719332
2023-04-28T08:00:51.852Z,9.719065
2023-04-28T08:01:51.851Z,9.719081
2023-04-28T08:02:52.064Z,9.719825
2023-04-28T08:03:52.309Z,9.719300
2023-04-28T08:04:52.868Z,9.719027
2023-04-28T08:05:51.865Z,9.719046
2023-04-28T08:06:51.801Z,9.719251
2023-04-28T08:07:51.837Z,9.719056
2023-04-28T08:08:51.786Z,9.719099
2023-04-28T08:09:53.317Z,9.719039
2023-04-28T08:10:51.765Z,9.719121
2023-04-28T08:11:51.741Z,9.719037
2023-04-28T08:12:51.752Z,9.718986
2023-04-28T08:13:51.724Z,9.719185
2023-04-28T08:14:51.735Z,9.719085
2023-04-28T08:15:51.779Z,9.719306
2023-04-28T08:16:51.701Z,9.719128
2023-04-28T08:17:51.725Z,9.719151
2023-04-28T08:18:51.695Z,9.719096
2023-04-28T08:19:53.323Z,9.719194
2023-04-28T08:20:52.697Z,9.719137
2023-04-28T08:21:51.665Z,9.718978
2023-04-28T08:22:51.679Z,9.719122
2023-04-28T08:23:51.625Z,9.719176
2023-04-28T08:24:51.614Z,9.719145
2023-04-28T08:25:51.634Z,9.719008
2023-04-28T08:26:51.604Z,9.719103
2023-04-28T08:27:51.609Z,9.719087
2023-04-28T08:28:51.625Z,9.719163
2023-04-28T08:29:51.576Z,9.719181
2023-04-28T08:30:51.552Z,9.719238
2023-04-28T08:31:51.641Z,9.719217
2023-04-28T08:32:51.692Z,9.719126
2023-04-28T08:33:53.174Z,9.719109
2023-04-28T08:34:51.518Z,9.719023
2023-04-28T08:35:51.526Z,9.718850
2023-04-28T08:36:51.514Z,9.718992
2023-04-28T08:37:51.491Z,9.719099
2023-04-28T08:38:51.533Z,9.719010
2023-04-28T08:39:51.581Z,9.719141
2023-04-28T08:40:51.449Z,9.719092
2023-04-28T08:41:51.472Z,9.719120
2023-04-28T08:42:51.456Z,9.719208
2023-04-28T08:43:51.480Z,9.719245
2023-04-28T08:44:51.422Z,9.719150
2023-04-28T08:45:51.419Z,9.719165
2023-04-28T08:46:51.444Z,9.719246
2023-04-28T08:47:51.439Z,9.719213
2023-04-28T08:48:51.422Z,9.719150
2023-04-28T08:49:51.387Z,9.719158
2023-04-28T08:50:51.423Z,9.719154
2023-04-28T08:51:51.398Z,9.719141
2023-04-28T08:52:51.347Z,9.719294
2023-04-28T08:54:14.858Z,9.719440
2023-04-28T08:54:52.348Z,9.719379
2023-04-28T08:55:51.358Z,9.719057
2023-04-28T08:56:51.316Z,9.719053
2023-04-28T08:57:51.294Z,9.719034
2023-04-28T08:58:51.315Z,9.719095
2023-04-28T08:59:51.303Z,9.719102
2023-04-28T09:00:51.279Z,9.719134
2023-04-28T09:01:51.360Z,9.719112
2023-04-28T09:02:51.338Z,9.719186
2023-04-28T09:03:51.330Z,9.719233
2023-04-28T09:04:51.359Z,9.719194
2023-04-28T09:05:51.221Z,9.719033
2023-04-28T09:06:51.214Z,9.719052
2023-04-28T09:07:51.200Z,9.719078
2023-04-28T09:08:51.210Z,9.719007
2023-04-28T09:16:19.473Z,9.719038
2023-04-28T09:17:19.465Z,9.719213
2023-04-28T09:18:19.471Z,9.719030
2023-04-28T09:19:19.461Z,9.719145
2023-04-28T09:20:19.421Z,9.719094
2023-04-28T09:21:19.424Z,9.719159
2023-04-28T09:22:26.722Z,9.719184
2023-04-28T09:23:20.423Z,9.719297
2023-04-28T09:24:19.394Z,9.719244
2023-04-28T09:25:19.414Z,9.719287
2023-04-28T09:26:19.418Z,9.719249
2023-04-28T09:27:19.410Z,9.719262
2023-04-28T09:28:19.351Z,9.719225
2023-04-28T09:29:19.372Z,9.719211
2023-04-28T09:30:19.355Z,9.719191
2023-04-28T09:31:19.337Z,9.719275
2023-04-28T09:32:19.353Z,9.719260
2023-04-28T09:33:19.346Z,9.719496
2023-04-28T09:34:19.380Z,9.719097
2023-04-28T09:35:19.294Z,9.719215
2023-04-28T09:36:19.281Z,9.719188
2023-04-28T09:37:19.278Z,9.719125
2023-04-28T09:38:19.268Z,9.719050
2023-04-28T09:39:19.257Z,9.719194
2023-04-28T09:40:19.247Z,9.719235
2023-04-28T09:41:19.231Z,9.719147
2023-04-28T09:42:19.214Z,9.719216
2023-04-28T09:43:21.861Z,9.719205
2023-04-28T09:44:20.243Z,9.719076
2023-04-28T09:45:19.207Z,9.719063
2023-04-28T09:46:19.239Z,9.719123
2023-04-28T09:47:19.168Z,9.719098
2023-04-28T09:48:19.207Z,9.719013
2023-04-28T09:49:19.148Z,9.719261
2023-04-28T09:50:19.193Z,9.719324
2023-04-28T09:51:19.133Z,9.719325
2023-04-28T09:52:19.151Z,9.719282
2023-04-28T09:53:19.135Z,9.719310
2023-04-28T09:54:19.104Z,9.719279
2023-04-28T09:55:19.108Z,9.719253
2023-04-28T09:56:19.132Z,9.719316
2023-04-28T09:57:19.116Z,9.719299
2023-04-28T09:58:19.081Z,9.719327
2023-04-28T09:59:19.303Z,9.719350
2023-04-28T10:00:19.088Z,9.719314
2023-04-28T10:01:19.066Z,9.719307
2023-04-28T10:02:40.952Z,9.719327
2023-04-28T10:03:22.690Z,9.719305
2023-04-28T10:04:19.160Z,9.719338
2023-04-28T10:05:19.281Z,9.719374
2023-04-28T10:06:19.259Z,9.719359
2023-04-28T10:07:19.030Z,9.719317
2023-04-28T10:08:18.961Z,9.719369
2023-04-28T10:09:18.965Z,9.719357
2023-04-28T10:10:18.990Z,9.719353
2023-04-28T10:11:18.972Z,9.719334
2023-04-28T10:12:18.936Z,9.719350
2023-04-28T10:13:18.904Z,9.719455
2023-04-28T10:14:18.915Z,9.719380
2023-04-28T10:15:18.906Z,9.719386
2023-04-28T10:16:19.018Z,9.719295
2023-04-28T10:17:18.918Z,9.719252
2023-04-28T10:18:18.909Z,9.719308
2023-04-28T10:19:18.861Z,9.719382
2023-04-28T10:20:18.848Z,9.719364
2023-04-28T10:21:18.857Z,9.719295
2023-04-28T10:22:18.843Z,9.719273
2023-04-28T10:23:18.848Z,9.719063
2023-04-28T10:24:18.819Z,9.719145
2023-04-28T10:25:18.851Z,9.719228
2023-04-28T10:26:18.809Z,9.719172
2023-04-28T10:27:18.793Z,9.719221
2023-04-28T10:28:18.781Z,9.719176
2023-04-28T10:29:18.767Z,9.719274
2023-04-28T10:30:26.323Z,9.719291
2023-04-28T10:31:20.846Z,9.719230
2023-04-28T10:32:18.775Z,9.719256
2023-04-28T10:33:18.734Z,9.719270
2023-04-28T10:34:18.784Z,9.719243
2023-04-28T10:35:18.699Z,9.719133
2023-04-28T10:36:24.109Z,9.719133
2023-04-28T10:37:19.707Z,9.719204
2023-04-28T10:38:18.689Z,9.719149
2023-04-28T10:39:18.704Z,9.719042
2023-04-28T10:40:18.692Z,9.719067
2023-04-28T10:41:18.707Z,9.719098
2023-04-28T10:42:18.730Z,9.719095
2023-04-28T10:43:19.668Z,9.719174
2023-04-28T10:44:18.632Z,9.719088
2023-04-28T10:45:18.601Z,9.719080
2023-04-28T10:46:18.621Z,9.719151
2023-04-28T10:47:18.606Z,9.719181
2023-04-28T10:48:18.608Z,9.719028
2023-04-28T10:49:18.601Z,9.719007
2023-04-28T10:50:20.170Z,9.719072
2023-04-28T10:51:19.605Z,9.719189
2023-04-28T10:52:18.569Z,9.719253
2023-04-28T10:53:18.524Z,9.719087
2023-04-28T10:54:18.538Z,9.718987
2023-04-28T10:55:22.212Z,9.719126
2023-04-28T10:56:19.598Z,9.719305
2023-04-28T10:57:18.483Z,9.719398
2023-04-28T10:58:18.506Z,9.719388
2023-04-28T10:59:18.494Z,9.719299
2023-04-28T11:00:18.451Z,9.719315
2023-04-28T11:01:18.515Z,9.719344
2023-04-28T11:02:18.469Z,9.719369
2023-04-28T11:03:18.566Z,9.719312
2023-04-28T11:04:18.502Z,9.719236
2023-04-28T11:05:18.530Z,9.719355
2023-04-28T11:06:18.411Z,9.719391
2023-04-28T11:07:18.401Z,9.719267
2023-04-28T11:08:18.390Z,9.719379
2023-04-28T11:09:18.395Z,9.719289
2023-04-28T11:10:18.372Z,9.719438
2023-04-28T11:11:18.372Z,9.719391
2023-04-28T11:12:18.355Z,9.719340
2023-04-28T11:13:18.337Z,9.719397
2023-04-28T11:14:18.355Z,9.719512
2023-04-28T11:15:18.293Z,9.719545
2023-04-28T11:16:18.521Z,9.719471
2023-04-28T11:17:18.325Z,9.719411
2023-04-28T11:18:18.297Z,9.719135
2023-04-28T11:19:18.311Z,9.719259
2023-04-28T11:20:18.292Z,9.719197
2023-04-28T11:21:19.279Z,9.719244
2023-04-28T11:22:18.297Z,9.719247
2023-04-28T11:23:18.215Z,9.719498
2023-04-28T11:24:18.226Z,9.719449
2023-04-28T11:25:18.201Z,9.719410
2023-04-28T11:26:18.202Z,9.719476
2023-04-28T11:27:18.195Z,9.719478
2023-04-28T11:28:18.188Z,9.719468
2023-04-28T11:29:18.202Z,9.719568
2023-04-28T11:30:18.188Z,9.719439
2023-04-28T11:31:18.219Z,9.719381
2023-04-28T11:32:18.190Z,9.719228
2023-04-28T11:33:18.155Z,9.719204
2023-04-28T11:34:18.153Z,9.719252
2023-04-28T11:35:18.120Z,9.719236
2023-04-28T11:36:18.096Z,9.719292
2023-04-28T11:37:18.487Z,9.719294
2023-04-28T11:38:18.104Z,9.719298
2023-04-28T11:39:18.196Z,9.719316
2023-04-28T11:40:18.070Z,9.719365
2023-04-28T11:41:18.054Z,9.719306
2023-04-28T11:42:18.148Z,9.719361
2023-04-28T11:43:18.160Z,9.719413
2023-04-28T11:44:18.054Z,9.719342
2023-04-28T11:45:18.025Z,9.719350
2023-04-28T11:46:18.055Z,9.719420
2023-04-28T11:47:17.989Z,9.719212
2023-04-28T11:48:17.986Z,9.719064
2023-04-28T11:49:17.973Z,9.718965
2023-04-28T11:50:17.984Z,9.718934
2023-04-28T11:51:17.942Z,9.719168
2023-04-28T11:52:17.930Z,9.719070